الصفحة الرئيسية
METAR-TAF:

METAR-TAF

مطار :

سان ديني, ريونيون

دائرة عرض: 20-53S, خط طول: 055-31E, ارتفاع: 21 متر

مراقبة الطقس الحالي

تاريخ ووقت الإصدار 22 دقيقة قبل الساعة 03:00UTC
ريح 11 عقدة من الجنوب/الجنوب الشرقي
درجة الحرارة 22°درجة مئوية
الرطوبة 83%
ضغط 1021 hPa
الرؤية: 6000 متر
غيوم مفككة على ارتفاع 1400 قدم
غيوم مفككة على ارتفاع 4600 قدم
مطر خفيف

METAR: FMEE 230300Z 15011KT 6000 -RA BKN014 BKN046 22/19 Q1021 NOSIG

زمن: 07:22 (03:22 UTC)

توقعات

تاريخ ووقت الإصدار 4ساعات و 22 دقيقة قبل الساعة 23:00UTC
التوقعات صالحة من23 الساعة 00 UTC إلى 24 الساعة 06 UTC
ريح 12 عقدة من الجنوب الشرقي
الرؤية 10 كم أو أكثر
غيوم متفرقة على ارتفاع 2600 قدم
نظرية الاحتمالات 30% :
مؤقت
من 23 الساعة 00 UTC إلى 23 الساعة 06 UTC
الرؤية: 4500 متر
زخات من المطر
أصبح
من 23 الساعة 05 UTC إلى 23 الساعة 06 UTC
ريح 20 عقدة من الشرق/الجنوب الشرقي تتزايد حتى 30 عقدة
أصبح
من 23 الساعة 13 UTC إلى 23 الساعة 15 UTC
ريح 14 عقدة من الجنوب الشرقي

TAF: FMEE 222300Z 2300/2406 14012KT 9999 SCT026 PROB30 TEMPO 2300/2306 4500 SHRA BECMG 2305/2306 12020G30KT BECMG 2313/2315 14014KT

أرصاد الطقس والتوقعات من أكثر من 4000 مطار (تقارير الطقس للمطار METAR والتنبؤ بالطقس بالمطارTAF).

المحطات المتاحة هي النقط الصفراء والحمراء على الخريطة.

حرك المؤشر فوق النقطة لمعرفة اسم المحطة.

ثم انقر لمعرفة أرصاد وتوقعات الطقس.

لتغيير الخارطة: اضغط على الأزرار الخضراء مع رمز الصليب الأسود للتكبير. على الزر الأخضر مع شرطة للتصغير، أو على الأسهم الخضراء للخرائط المجاورة.


METAR-TAF: